createdAt,value
2023-03-25T00:00:23.066Z,9.60
2023-03-25T00:02:52.525Z,9.50
2023-03-25T00:05:28.669Z,9.50
2023-03-25T00:07:55.628Z,9.50
2023-03-25T00:10:22.487Z,9.50
2023-03-25T00:12:55.649Z,9.50
2023-03-25T00:15:23.800Z,9.50
2023-03-25T00:17:57.995Z,9.50
2023-03-25T00:20:24.809Z,9.50
2023-03-25T00:22:51.642Z,9.50
2023-03-25T00:25:26.646Z,9.50
2023-03-25T00:27:59.809Z,9.50
2023-03-25T00:30:32.725Z,9.50
2023-03-25T00:33:01.806Z,9.50
2023-03-25T00:35:29.167Z,9.50
2023-03-25T00:38:09.692Z,9.50
2023-03-25T00:40:36.499Z,9.50
2023-03-25T00:43:05.028Z,9.50
2023-03-25T00:45:38.793Z,9.50
2023-03-25T00:48:07.099Z,9.50
2023-03-25T00:50:40.800Z,9.50
2023-03-25T00:53:14.744Z,9.50
2023-03-25T00:55:49.271Z,9.50
2023-03-25T00:58:16.860Z,9.50
2023-03-25T01:00:43.654Z,9.50
2023-03-25T01:03:30.864Z,9.50
2023-03-25T01:06:04.761Z,9.50
2023-03-25T01:08:38.730Z,9.50
2023-03-25T01:11:20.895Z,9.50
2023-03-25T01:13:57.698Z,9.50
2023-03-25T01:16:30.802Z,9.50
2023-03-25T01:18:57.680Z,9.50
2023-03-25T01:21:24.836Z,9.50
2023-03-25T01:23:57.726Z,9.50
2023-03-25T01:26:30.733Z,9.50
2023-03-25T01:28:57.632Z,9.40
2023-03-25T01:31:30.322Z,9.40
2023-03-25T01:34:04.740Z,9.40
2023-03-25T01:36:31.754Z,9.40
2023-03-25T01:39:06.755Z,9.30
2023-03-25T01:41:48.509Z,9.40
2023-03-25T01:44:28.790Z,9.30
2023-03-25T01:46:57.445Z,9.30
2023-03-25T01:49:46.784Z,9.20
2023-03-25T01:52:27.868Z,9.10
2023-03-25T01:54:56.997Z,9.00
2023-03-25T01:57:37.839Z,8.90
2023-03-25T02:00:09.456Z,8.90
2023-03-25T02:02:46.840Z,8.90
2023-03-25T02:05:26.150Z,8.90
2023-03-25T02:08:04.822Z,8.90
2023-03-25T02:10:32.568Z,8.90
2023-03-25T02:13:00.113Z,8.90
2023-03-25T02:15:33.829Z,8.90
2023-03-25T02:18:40.676Z,8.90
2023-03-25T02:21:44.840Z,8.90
2023-03-25T02:24:30.178Z,8.90
2023-03-25T02:27:21.881Z,8.90
2023-03-25T02:30:14.070Z,8.80
2023-03-25T02:33:09.886Z,8.80
2023-03-25T02:36:05.149Z,8.90
2023-03-25T02:38:47.888Z,8.90
2023-03-25T02:41:25.736Z,8.90
2023-03-25T02:44:11.867Z,8.90
2023-03-25T02:46:46.004Z,8.90
2023-03-25T02:49:42.849Z,9.00
2023-03-25T02:52:12.277Z,9.00
2023-03-25T02:54:41.866Z,9.00
2023-03-25T02:57:17.887Z,9.00
2023-03-25T02:59:47.262Z,9.00
2023-03-25T03:02:15.852Z,9.00
2023-03-25T03:04:57.895Z,9.00
2023-03-25T03:07:33.767Z,8.90
2023-03-25T03:10:29.933Z,8.90
2023-03-25T03:13:11.024Z,8.90
2023-03-25T03:15:57.950Z,8.90
2023-03-25T03:18:44.866Z,8.90
2023-03-25T03:21:30.261Z,8.90
2023-03-25T03:24:09.942Z,8.90
2023-03-25T03:26:55.982Z,8.80
2023-03-25T03:29:37.982Z,8.90
2023-03-25T03:32:35.154Z,8.90
2023-03-25T03:35:08.826Z,8.90
2023-03-25T03:37:51.987Z,8.90
2023-03-25T03:40:22.866Z,8.90
2023-03-25T03:43:19.986Z,8.90
2023-03-25T03:45:51.898Z,8.90
2023-03-25T03:48:31.990Z,8.80
2023-03-25T03:51:14.104Z,8.70
2023-03-25T03:53:57.018Z,8.70
2023-03-25T03:56:32.348Z,8.60
2023-03-25T03:59:09.321Z,8.50
2023-03-25T04:01:47.859Z,8.50
2023-03-25T04:04:27.280Z,8.50
2023-03-25T04:07:21.019Z,8.40
2023-03-25T04:10:03.142Z,8.40
2023-03-25T04:12:38.755Z,8.40
2023-03-25T04:15:13.095Z,8.30
2023-03-25T04:17:47.054Z,8.30
2023-03-25T04:20:22.065Z,8.30
2023-03-25T04:23:00.056Z,8.30
2023-03-25T04:25:27.640Z,8.20
2023-03-25T04:28:05.034Z,8.20
2023-03-25T04:30:31.767Z,8.20
2023-03-25T04:33:07.095Z,8.20
2023-03-25T04:35:41.057Z,8.20
2023-03-25T04:38:08.431Z,8.10
2023-03-25T04:40:42.049Z,8.10
2023-03-25T04:43:08.993Z,8.10
2023-03-25T04:45:43.098Z,8.10
2023-03-25T04:48:22.326Z,8.10
2023-03-25T04:50:58.082Z,8.10
2023-03-25T04:53:39.180Z,8.10
2023-03-25T04:56:07.736Z,8.10
2023-03-25T04:58:43.072Z,8.20
2023-03-25T05:01:32.889Z,8.20
2023-03-25T05:04:11.094Z,8.20
2023-03-25T05:06:50.185Z,8.20
2023-03-25T05:09:27.139Z,8.30
2023-03-25T05:11:55.938Z,8.30
2023-03-25T05:14:29.100Z,8.30
2023-03-25T05:17:09.099Z,8.30
2023-03-25T05:19:35.969Z,8.30
2023-03-25T05:22:10.233Z,8.30
2023-03-25T05:24:44.120Z,8.20
2023-03-25T05:27:11.006Z,8.30
2023-03-25T05:29:37.758Z,8.30
2023-03-25T05:32:11.102Z,8.30
2023-03-25T05:34:38.621Z,8.30
2023-03-25T05:37:12.181Z,8.30
2023-03-25T05:39:39.309Z,8.30
2023-03-25T05:42:13.160Z,8.40
2023-03-25T05:44:50.891Z,8.40
2023-03-25T05:47:30.193Z,8.40
2023-03-25T05:50:03.172Z,8.30
2023-03-25T05:52:31.486Z,8.30
2023-03-25T05:55:11.188Z,8.20
2023-03-25T05:57:45.203Z,8.20
2023-03-25T06:00:13.700Z,8.20
2023-03-25T06:02:43.180Z,8.20
2023-03-25T06:05:20.307Z,8.20
2023-03-25T06:08:02.257Z,8.20
2023-03-25T06:10:29.663Z,8.30
2023-03-25T06:12:56.710Z,8.30
2023-03-25T06:15:35.413Z,8.40
2023-03-25T06:18:11.227Z,8.50
2023-03-25T06:20:38.176Z,8.50
2023-03-25T06:23:12.232Z,8.50
2023-03-25T06:25:39.246Z,8.40
2023-03-25T06:28:25.260Z,8.30
2023-03-25T06:30:59.268Z,8.20
2023-03-25T06:33:43.529Z,8.20
2023-03-25T06:36:19.312Z,8.20
2023-03-25T06:38:50.468Z,8.10
2023-03-25T06:41:27.226Z,8.10
2023-03-25T06:43:54.115Z,8.10
2023-03-25T06:46:27.311Z,8.00
2023-03-25T06:49:00.258Z,8.10
2023-03-25T06:51:33.286Z,8.10
2023-03-25T06:54:00.542Z,8.10
2023-03-25T06:56:27.426Z,8.10
2023-03-25T06:59:00.279Z,8.20
2023-03-25T07:01:27.262Z,8.10
2023-03-25T07:04:00.291Z,8.20
2023-03-25T07:06:27.195Z,8.20
2023-03-25T07:09:00.344Z,8.20
2023-03-25T07:11:31.015Z,8.20
2023-03-25T07:14:04.356Z,8.20
2023-03-25T07:16:31.385Z,8.30
2023-03-25T07:19:05.325Z,8.30
2023-03-25T07:21:32.127Z,8.30
2023-03-25T07:23:59.024Z,8.40
2023-03-25T07:26:32.362Z,8.50
2023-03-25T07:29:05.353Z,8.50
2023-03-25T07:31:32.349Z,8.50
2023-03-25T07:34:07.404Z,8.60
2023-03-25T07:36:34.325Z,8.60
2023-03-25T07:39:01.183Z,8.60
2023-03-25T07:41:41.442Z,8.70
2023-03-25T07:44:08.486Z,8.70
2023-03-25T07:46:41.483Z,8.70
2023-03-25T07:49:14.307Z,8.70
2023-03-25T07:51:41.169Z,8.80
2023-03-25T07:54:14.404Z,8.80
2023-03-25T07:56:41.481Z,8.80
2023-03-25T07:59:16.400Z,8.80
2023-03-25T08:01:43.209Z,8.90
2023-03-25T08:04:16.419Z,8.90
2023-03-25T08:06:49.541Z,8.90
2023-03-25T08:09:16.501Z,9.00
2023-03-25T08:11:51.449Z,9.00
2023-03-25T08:14:18.484Z,9.00
2023-03-25T08:16:52.443Z,9.10
2023-03-25T08:19:19.410Z,9.10
2023-03-25T08:21:52.528Z,9.20
2023-03-25T08:24:25.392Z,9.20
2023-03-25T08:26:52.284Z,9.20
2023-03-25T08:29:26.442Z,9.20
2023-03-25T08:31:54.549Z,9.10
2023-03-25T08:34:34.402Z,9.20
2023-03-25T08:37:01.143Z,9.20
2023-03-25T08:39:36.449Z,9.30
2023-03-25T08:42:03.470Z,9.40
2023-03-25T08:44:36.509Z,9.50
2023-03-25T08:47:05.514Z,9.50
2023-03-25T08:49:38.448Z,9.60
2023-03-25T08:52:08.891Z,9.60
2023-03-25T08:54:42.484Z,9.70
2023-03-25T08:57:09.487Z,9.80
2023-03-25T08:59:42.441Z,9.90
2023-03-25T09:02:18.521Z,10.00
2023-03-25T09:04:54.464Z,10.00
2023-03-25T09:07:30.201Z,10.00
2023-03-25T09:10:03.502Z,10.00
2023-03-25T09:12:32.510Z,10.00
2023-03-25T09:15:05.457Z,10.10
2023-03-25T09:17:33.952Z,10.10
2023-03-25T09:20:07.519Z,10.10
2023-03-25T09:22:38.216Z,10.10
2023-03-25T09:25:13.509Z,10.20
2023-03-25T09:27:40.688Z,10.30
2023-03-25T09:30:15.517Z,10.30
2023-03-25T09:32:42.661Z,10.20
2023-03-25T09:35:16.636Z,10.30
2023-03-25T09:37:52.096Z,10.40
2023-03-25T09:40:31.526Z,10.40
2023-03-25T09:43:20.778Z,10.50
2023-03-25T09:45:55.536Z,10.50
2023-03-25T09:48:25.501Z,10.40
2023-03-25T09:51:00.527Z,10.40
2023-03-25T09:53:39.309Z,10.40
2023-03-25T09:56:20.528Z,10.50
2023-03-25T09:58:50.535Z,10.60
2023-03-25T10:01:37.596Z,10.60
2023-03-25T10:04:16.417Z,10.60
2023-03-25T10:06:58.528Z,10.80
2023-03-25T10:09:47.361Z,10.90
2023-03-25T10:12:49.664Z,11.00
2023-03-25T10:15:44.627Z,11.00
2023-03-25T10:19:00.606Z,11.00
2023-03-25T10:21:50.586Z,11.10
2023-03-25T10:24:39.104Z,11.10
2023-03-25T10:27:21.625Z,11.30
2023-03-25T10:29:59.593Z,11.40
2023-03-25T10:32:43.667Z,11.40
2023-03-25T10:35:53.787Z,11.40
2023-03-25T10:38:25.784Z,11.50
2023-03-25T10:41:25.681Z,11.50
2023-03-25T10:44:00.654Z,11.50
2023-03-25T10:46:57.670Z,11.30
2023-03-25T10:49:30.170Z,11.30
2023-03-25T10:52:05.648Z,11.40
2023-03-25T10:54:40.061Z,11.40
2023-03-25T10:57:32.735Z,11.50
2023-03-25T11:00:25.657Z,11.50
2023-03-25T11:03:03.719Z,11.40
2023-03-25T11:05:35.619Z,11.40
2023-03-25T11:08:23.751Z,11.50
2023-03-25T11:11:04.949Z,11.60
2023-03-25T11:13:38.674Z,11.70
2023-03-25T11:16:12.711Z,11.80
2023-03-25T11:18:46.686Z,11.80
2023-03-25T11:21:21.696Z,11.70
2023-03-25T11:23:57.665Z,11.60
2023-03-25T11:26:33.892Z,11.70
2023-03-25T11:29:12.712Z,11.70
2023-03-25T11:31:48.786Z,11.70
2023-03-25T11:34:30.774Z,11.80
2023-03-25T11:37:04.580Z,11.80
2023-03-25T11:39:45.948Z,11.80
2023-03-25T11:42:32.182Z,11.80
2023-03-25T11:45:07.704Z,11.70
2023-03-25T11:47:44.802Z,11.80
2023-03-25T11:50:22.706Z,11.90
2023-03-25T11:52:59.831Z,11.90
2023-03-25T11:55:37.715Z,12.00
2023-03-25T11:58:28.734Z,12.10
2023-03-25T12:01:29.608Z,12.10
2023-03-25T12:04:13.880Z,12.20
2023-03-25T12:07:06.787Z,12.10
2023-03-25T12:09:33.605Z,12.10
2023-03-25T12:12:01.008Z,12.40
2023-03-25T12:14:54.748Z,12.60
2023-03-25T12:17:43.147Z,12.80
2023-03-25T12:20:37.793Z,12.90
2023-03-25T12:23:28.112Z,13.10
2023-03-25T12:26:17.899Z,13.20
2023-03-25T12:29:12.259Z,13.00
2023-03-25T12:32:00.811Z,13.10
2023-03-25T12:34:39.876Z,13.10
2023-03-25T12:37:32.722Z,13.00
2023-03-25T12:40:31.830Z,13.10
2023-03-25T12:43:10.488Z,13.20
2023-03-25T12:45:54.895Z,13.30
2023-03-25T12:49:05.811Z,13.20
2023-03-25T12:51:56.867Z,13.10
2023-03-25T12:54:49.826Z,13.10
2023-03-25T12:57:53.866Z,13.20
2023-03-25T13:00:32.545Z,13.40
2023-03-25T13:03:40.903Z,13.50
2023-03-25T13:06:16.638Z,13.70
2023-03-25T13:08:58.828Z,13.50
2023-03-25T13:11:44.873Z,13.40
2023-03-25T13:14:50.813Z,13.10
2023-03-25T13:17:34.885Z,12.70
2023-03-25T13:20:06.541Z,12.40
2023-03-25T13:22:46.857Z,12.30
2023-03-25T13:25:26.378Z,12.40
2023-03-25T13:28:03.894Z,12.80
2023-03-25T13:30:43.744Z,13.00
2023-03-25T13:33:31.900Z,13.00
2023-03-25T13:36:27.891Z,13.20
2023-03-25T13:39:11.926Z,13.50
2023-03-25T13:41:46.176Z,13.50
2023-03-25T13:44:19.920Z,13.40
2023-03-25T13:47:23.385Z,13.20
2023-03-25T13:50:13.891Z,12.90
2023-03-25T13:52:45.848Z,12.50
2023-03-25T13:55:28.064Z,12.00
2023-03-25T13:58:18.401Z,11.30
2023-03-25T14:01:36.936Z,10.70
2023-03-25T14:04:21.890Z,10.20
2023-03-25T14:07:27.955Z,9.90
2023-03-25T14:10:17.827Z,9.70
2023-03-25T14:13:05.931Z,10.00
2023-03-25T14:15:39.812Z,10.40
2023-03-25T14:18:22.950Z,10.60
2023-03-25T14:20:59.227Z,10.90
2023-03-25T14:23:38.931Z,11.30
2023-03-25T14:26:15.965Z,11.70
2023-03-25T14:28:51.978Z,12.10
2023-03-25T14:31:39.070Z,12.40
2023-03-25T14:34:11.975Z,12.60
2023-03-25T14:36:48.975Z,12.60
2023-03-25T14:39:30.800Z,12.60
2023-03-25T14:42:05.993Z,12.60
2023-03-25T14:44:56.018Z,12.70
2023-03-25T14:47:33.000Z,12.80
2023-03-25T14:50:15.998Z,12.80
2023-03-25T14:52:51.971Z,12.90
2023-03-25T14:55:35.043Z,12.90
2023-03-25T14:58:23.888Z,12.80
2023-03-25T15:01:09.016Z,12.70
2023-03-25T15:03:46.094Z,12.60
2023-03-25T15:06:34.283Z,12.40
2023-03-25T15:09:16.167Z,12.30
2023-03-25T15:11:53.083Z,12.30
2023-03-25T15:14:32.028Z,12.20
2023-03-25T15:17:09.028Z,12.20
2023-03-25T15:20:10.495Z,12.20
2023-03-25T15:22:45.033Z,12.20
2023-03-25T15:25:25.140Z,12.20
2023-03-25T15:28:41.081Z,12.30
2023-03-25T15:31:56.178Z,12.60
2023-03-25T15:34:54.843Z,12.70
2023-03-25T15:37:59.066Z,12.50
2023-03-25T15:40:41.118Z,12.20
2023-03-25T15:43:59.595Z,12.20
2023-03-25T15:47:13.304Z,12.20
2023-03-25T15:49:49.181Z,12.10
2023-03-25T15:52:42.070Z,11.90
2023-03-25T15:55:21.294Z,11.80
2023-03-25T15:58:06.132Z,11.70
2023-03-25T16:00:37.550Z,11.70
2023-03-25T16:03:23.269Z,11.50
2023-03-25T16:06:05.146Z,11.40
2023-03-25T16:08:43.175Z,11.40
2023-03-25T16:11:25.941Z,11.50
2023-03-25T16:14:23.162Z,11.50
2023-03-25T16:17:04.170Z,11.50
2023-03-25T16:19:41.561Z,11.40
2023-03-25T16:22:35.128Z,11.40
2023-03-25T16:25:14.698Z,11.30
2023-03-25T16:27:59.252Z,11.20
2023-03-25T16:30:38.362Z,11.00
2023-03-25T16:33:16.240Z,10.70
2023-03-25T16:35:50.221Z,10.30
2023-03-25T16:38:28.262Z,10.00
2023-03-25T16:41:11.595Z,9.70
2023-03-25T16:43:45.165Z,9.60
2023-03-25T16:46:21.268Z,9.40
2023-03-25T16:49:00.442Z,9.40
2023-03-25T16:51:32.125Z,9.40
2023-03-25T16:54:08.494Z,9.40
2023-03-25T16:56:39.534Z,9.50
2023-03-25T16:59:22.203Z,9.50
2023-03-25T17:02:01.366Z,9.50
2023-03-25T17:04:58.122Z,9.40
2023-03-25T17:07:35.328Z,9.40
2023-03-25T17:10:09.244Z,9.30
2023-03-25T17:12:36.202Z,9.30
2023-03-25T17:15:16.240Z,9.30
2023-03-25T17:17:57.276Z,9.30
2023-03-25T17:20:43.227Z,9.40
2023-03-25T17:23:42.513Z,9.40
2023-03-25T17:26:19.286Z,9.40
2023-03-25T17:28:58.480Z,9.30
2023-03-25T17:31:39.344Z,9.20
2023-03-25T17:34:19.300Z,9.10
2023-03-25T17:36:49.000Z,9.00
2023-03-25T17:39:25.287Z,8.90
2023-03-25T17:42:01.613Z,8.80
2023-03-25T17:44:51.325Z,8.80
2023-03-25T17:47:20.128Z,8.80
2023-03-25T17:49:54.295Z,8.80
2023-03-25T17:52:30.721Z,8.80
2023-03-25T17:54:58.685Z,8.90
2023-03-25T17:57:37.638Z,8.80
2023-03-25T18:00:12.348Z,8.80
2023-03-25T18:02:47.357Z,8.80
2023-03-25T18:05:15.492Z,8.80
2023-03-25T18:07:42.707Z,8.80
2023-03-25T18:10:26.350Z,8.70
2023-03-25T18:13:00.299Z,8.70
2023-03-25T18:15:27.810Z,8.60
2023-03-25T18:17:59.451Z,8.60
2023-03-25T18:20:36.457Z,8.60
2023-03-25T18:23:06.412Z,8.50
2023-03-25T18:25:40.325Z,8.40
2023-03-25T18:28:07.268Z,8.30
2023-03-25T18:30:58.362Z,8.30
2023-03-25T18:33:35.403Z,8.20
2023-03-25T18:36:08.340Z,8.10
2023-03-25T18:38:41.341Z,8.10
2023-03-25T18:41:10.621Z,8.10
2023-03-25T18:43:44.377Z,8.10
2023-03-25T18:46:32.439Z,8.20
2023-03-25T18:49:06.865Z,8.20
2023-03-25T18:51:40.434Z,8.30
2023-03-25T18:54:15.392Z,8.30
2023-03-25T18:56:42.545Z,8.40
2023-03-25T18:59:11.069Z,8.40
2023-03-25T19:01:44.550Z,8.40
2023-03-25T19:04:18.414Z,8.40
2023-03-25T19:06:52.400Z,8.40
2023-03-25T19:09:19.317Z,8.40
2023-03-25T19:11:53.426Z,8.40
2023-03-25T19:14:20.253Z,8.40
2023-03-25T19:17:03.229Z,8.40
2023-03-25T19:19:30.906Z,8.40
2023-03-25T19:22:04.416Z,8.50
2023-03-25T19:24:31.338Z,8.50
2023-03-25T19:27:12.417Z,8.50
2023-03-25T19:29:45.496Z,8.60
2023-03-25T19:32:19.413Z,8.60
2023-03-25T19:34:46.446Z,8.60
2023-03-25T19:37:13.817Z,8.60
2023-03-25T19:39:49.470Z,8.60
2023-03-25T19:42:16.644Z,8.70
2023-03-25T19:44:44.602Z,8.70
2023-03-25T19:47:18.538Z,8.70
2023-03-25T19:49:46.154Z,8.60
2023-03-25T19:52:19.485Z,8.60
2023-03-25T19:54:46.879Z,8.50
2023-03-25T19:57:20.525Z,8.50
2023-03-25T19:59:53.470Z,8.50
2023-03-25T20:02:27.723Z,8.40
2023-03-25T20:04:54.779Z,8.50
2023-03-25T20:07:28.560Z,8.40
2023-03-25T20:10:16.706Z,8.40
2023-03-25T20:12:59.678Z,8.40
2023-03-25T20:15:27.265Z,8.30
2023-03-25T20:18:02.602Z,8.30
2023-03-25T20:20:29.494Z,8.30
2023-03-25T20:23:06.510Z,8.30
2023-03-25T20:25:33.318Z,8.20
2023-03-25T20:28:07.539Z,8.20
2023-03-25T20:30:35.750Z,8.30
2023-03-25T20:33:09.609Z,8.30
2023-03-25T20:35:43.622Z,8.20
2023-03-25T20:38:11.665Z,8.20
2023-03-25T20:40:44.579Z,8.20
2023-03-25T20:43:20.621Z,8.20
2023-03-25T20:45:47.443Z,8.20
2023-03-25T20:48:21.593Z,8.20
2023-03-25T20:50:48.679Z,8.20
2023-03-25T20:53:22.573Z,8.30
2023-03-25T20:55:49.596Z,8.20
2023-03-25T20:58:23.542Z,8.20
2023-03-25T21:00:50.481Z,8.30
2023-03-25T21:03:30.594Z,8.30
2023-03-25T21:06:07.436Z,8.30
2023-03-25T21:08:47.577Z,8.30
2023-03-25T21:11:17.545Z,8.20
2023-03-25T21:13:44.430Z,8.20
2023-03-25T21:16:17.650Z,8.20
2023-03-25T21:18:44.719Z,8.10
2023-03-25T21:21:19.612Z,8.10
2023-03-25T21:23:46.774Z,8.10
2023-03-25T21:26:22.633Z,8.00
2023-03-25T21:28:49.769Z,7.90
2023-03-25T21:31:27.679Z,7.80
2023-03-25T21:33:56.226Z,7.80
2023-03-25T21:36:38.601Z,7.70
2023-03-25T21:39:06.881Z,7.60
2023-03-25T21:41:41.754Z,7.60
2023-03-25T21:44:08.892Z,7.50
2023-03-25T21:46:43.684Z,7.50
2023-03-25T21:49:11.721Z,7.50
2023-03-25T21:51:42.528Z,7.50
2023-03-25T21:54:17.675Z,7.50
2023-03-25T21:56:50.750Z,7.50
2023-03-25T21:59:17.681Z,7.40
2023-03-25T22:01:51.638Z,7.40
2023-03-25T22:04:25.696Z,7.40
2023-03-25T22:06:52.581Z,7.40
2023-03-25T22:09:25.697Z,7.40
2023-03-25T22:12:00.126Z,7.40
2023-03-25T22:14:33.864Z,7.50
2023-03-25T22:17:00.812Z,7.60
2023-03-25T22:19:27.713Z,7.70
2023-03-25T22:22:00.686Z,7.70
2023-03-25T22:24:30.111Z,7.80
2023-03-25T22:27:03.765Z,7.80
2023-03-25T22:29:30.618Z,7.80
2023-03-25T22:32:03.759Z,7.80
2023-03-25T22:34:30.835Z,7.80
2023-03-25T22:37:03.696Z,7.90
2023-03-25T22:39:37.084Z,7.90
2023-03-25T22:42:10.699Z,7.90
2023-03-25T22:44:37.500Z,7.80
2023-03-25T22:47:10.741Z,7.80
2023-03-25T22:49:40.468Z,7.80
2023-03-25T22:52:09.064Z,7.80
2023-03-25T22:54:42.830Z,7.80
2023-03-25T22:57:17.759Z,7.80
2023-03-25T22:59:44.526Z,7.80
2023-03-25T23:02:14.156Z,7.80
2023-03-25T23:04:47.927Z,7.80
2023-03-25T23:07:14.879Z,7.80
2023-03-25T23:09:48.796Z,7.80
2023-03-25T23:12:20.254Z,7.80
2023-03-25T23:14:58.816Z,7.90
2023-03-25T23:17:27.007Z,7.80
2023-03-25T23:20:00.836Z,7.90
2023-03-25T23:22:27.992Z,7.90
2023-03-25T23:25:02.892Z,7.90
2023-03-25T23:27:40.810Z,8.00
2023-03-25T23:30:14.790Z,8.00
2023-03-25T23:32:42.213Z,7.90
2023-03-25T23:35:25.031Z,7.90
2023-03-25T23:37:56.725Z,8.00
2023-03-25T23:40:32.825Z,7.90
2023-03-25T23:42:59.584Z,7.90
2023-03-25T23:45:36.863Z,7.90
2023-03-25T23:48:09.898Z,7.90
2023-03-25T23:50:36.741Z,7.80
2023-03-25T23:53:09.838Z,7.80
2023-03-25T23:55:37.259Z,7.90
2023-03-25T23:58:10.864Z,7.90
